sensor_id;sensor_type;location;lat;lon;timestamp;temperature;humidity
14473;DHT22;7322;50.872;4.386;2024-02-15T00:01:20;18.60;99.90
14473;DHT22;7322;50.872;4.386;2024-02-15T00:03:47;18.50;99.90
14473;DHT22;7322;50.872;4.386;2024-02-15T00:06:15;18.50;99.90
14473;DHT22;7322;50.872;4.386;2024-02-15T00:08:44;18.60;99.90
14473;DHT22;7322;50.872;4.386;2024-02-15T00:11:11;18.60;99.90
14473;DHT22;7322;50.872;4.386;2024-02-15T00:13:39;18.50;99.90
14473;DHT22;7322;50.872;4.386;2024-02-15T00:16:06;18.50;99.90
14473;DHT22;7322;50.872;4.386;2024-02-15T00:18:33;18.60;99.90
14473;DHT22;7322;50.872;4.386;2024-02-15T00:21:00;18.60;99.90
14473;DHT22;7322;50.872;4.386;2024-02-15T00:23:28;18.50;99.90
14473;DHT22;7322;50.872;4.386;2024-02-15T00:25:56;18.50;99.90
14473;DHT22;7322;50.872;4.386;2024-02-15T00:28:23;18.50;99.90
14473;DHT22;7322;50.872;4.386;2024-02-15T00:30:52;18.50;99.90
14473;DHT22;7322;50.872;4.386;2024-02-15T00:33:20;18.50;99.90
14473;DHT22;7322;50.872;4.386;2024-02-15T00:35:47;18.50;99.90
14473;DHT22;7322;50.872;4.386;2024-02-15T00:38:16;18.50;99.90
14473;DHT22;7322;50.872;4.386;2024-02-15T00:40:43;18.50;99.90
14473;DHT22;7322;50.872;4.386;2024-02-15T00:43:12;18.50;99.90
14473;DHT22;7322;50.872;4.386;2024-02-15T00:45:40;18.50;99.90
14473;DHT22;7322;50.872;4.386;2024-02-15T00:48:07;18.50;99.90
14473;DHT22;7322;50.872;4.386;2024-02-15T00:50:35;18.50;99.90
14473;DHT22;7322;50.872;4.386;2024-02-15T00:53:03;18.50;99.90
14473;DHT22;7322;50.872;4.386;2024-02-15T00:55:30;18.50;99.90
14473;DHT22;7322;50.872;4.386;2024-02-15T00:57:58;18.50;99.90
14473;DHT22;7322;50.872;4.386;2024-02-15T01:00:27;18.50;99.90
14473;DHT22;7322;50.872;4.386;2024-02-15T01:02:55;18.50;99.90
14473;DHT22;7322;50.872;4.386;2024-02-15T01:05:22;18.50;99.90
14473;DHT22;7322;50.872;4.386;2024-02-15T01:07:49;18.50;99.90
14473;DHT22;7322;50.872;4.386;2024-02-15T01:10:18;18.50;99.90
14473;DHT22;7322;50.872;4.386;2024-02-15T01:12:45;18.50;99.90
14473;DHT22;7322;50.872;4.386;2024-02-15T01:15:13;18.50;99.90
14473;DHT22;7322;50.872;4.386;2024-02-15T01:17:43;18.50;99.90
14473;DHT22;7322;50.872;4.386;2024-02-15T01:20:10;18.50;99.90
14473;DHT22;7322;50.872;4.386;2024-02-15T01:22:38;18.50;99.90
14473;DHT22;7322;50.872;4.386;2024-02-15T01:25:05;18.50;99.90
14473;DHT22;7322;50.872;4.386;2024-02-15T01:27:34;18.50;99.90
14473;DHT22;7322;50.872;4.386;2024-02-15T01:30:02;18.50;99.90
14473;DHT22;7322;50.872;4.386;2024-02-15T01:32:30;18.40;99.90
14473;DHT22;7322;50.872;4.386;2024-02-15T01:34:59;18.40;99.90
14473;DHT22;7322;50.872;4.386;2024-02-15T01:37:26;18.40;99.90
14473;DHT22;7322;50.872;4.386;2024-02-15T01:39:53;18.50;99.90
14473;DHT22;7322;50.872;4.386;2024-02-15T01:42:20;18.50;99.90
14473;DHT22;7322;50.872;4.386;2024-02-15T01:44:47;18.50;99.90
14473;DHT22;7322;50.872;4.386;2024-02-15T01:47:16;18.50;99.90
14473;DHT22;7322;50.872;4.386;2024-02-15T01:49:46;18.50;99.90
14473;DHT22;7322;50.872;4.386;2024-02-15T01:52:17;18.50;99.90
14473;DHT22;7322;50.872;4.386;2024-02-15T01:54:45;18.50;99.90
14473;DHT22;7322;50.872;4.386;2024-02-15T01:57:12;18.50;99.90
14473;DHT22;7322;50.872;4.386;2024-02-15T01:59:39;18.40;99.90
14473;DHT22;7322;50.872;4.386;2024-02-15T02:02:09;18.40;99.90
14473;DHT22;7322;50.872;4.386;2024-02-15T02:04:38;18.40;99.90
14473;DHT22;7322;50.872;4.386;2024-02-15T02:07:05;18.40;99.90
14473;DHT22;7322;50.872;4.386;2024-02-15T02:09:34;18.40;99.90
14473;DHT22;7322;50.872;4.386;2024-02-15T02:12:01;18.50;99.90
14473;DHT22;7322;50.872;4.386;2024-02-15T02:14:29;18.50;99.90
14473;DHT22;7322;50.872;4.386;2024-02-15T02:17:10;18.50;99.90
14473;DHT22;7322;50.872;4.386;2024-02-15T02:19:37;18.40;99.90
14473;DHT22;7322;50.872;4.386;2024-02-15T02:22:05;18.50;99.90
14473;DHT22;7322;50.872;4.386;2024-02-15T02:27:18;18.50;99.90
14473;DHT22;7322;50.872;4.386;2024-02-15T02:29:46;18.40;99.90
14473;DHT22;7322;50.872;4.386;2024-02-15T02:32:13;18.40;99.90
14473;DHT22;7322;50.872;4.386;2024-02-15T02:34:40;18.40;99.90
14473;DHT22;7322;50.872;4.386;2024-02-15T02:37:07;18.50;99.90
14473;DHT22;7322;50.872;4.386;2024-02-15T02:39:34;18.40;99.90
14473;DHT22;7322;50.872;4.386;2024-02-15T02:42:01;18.50;99.90
14473;DHT22;7322;50.872;4.386;2024-02-15T02:44:31;18.40;99.90
14473;DHT22;7322;50.872;4.386;2024-02-15T02:46:58;18.40;99.90
14473;DHT22;7322;50.872;4.386;2024-02-15T02:49:26;18.40;99.90
14473;DHT22;7322;50.872;4.386;2024-02-15T02:51:53;18.50;99.90
14473;DHT22;7322;50.872;4.386;2024-02-15T02:54:20;18.40;99.90
14473;DHT22;7322;50.872;4.386;2024-02-15T02:56:47;18.40;99.90
14473;DHT22;7322;50.872;4.386;2024-02-15T02:59:14;18.40;99.90
14473;DHT22;7322;50.872;4.386;2024-02-15T03:01:43;18.40;99.90
14473;DHT22;7322;50.872;4.386;2024-02-15T03:04:10;18.40;99.90
14473;DHT22;7322;50.872;4.386;2024-02-15T03:06:42;18.40;99.90
14473;DHT22;7322;50.872;4.386;2024-02-15T03:09:10;18.40;99.90
14473;DHT22;7322;50.872;4.386;2024-02-15T03:11:40;18.40;99.90
14473;DHT22;7322;50.872;4.386;2024-02-15T03:14:07;18.40;99.90
14473;DHT22;7322;50.872;4.386;2024-02-15T03:16:34;18.40;99.90
14473;DHT22;7322;50.872;4.386;2024-02-15T03:19:02;18.40;99.90
14473;DHT22;7322;50.872;4.386;2024-02-15T03:21:30;18.40;99.90
14473;DHT22;7322;50.872;4.386;2024-02-15T03:23:57;18.40;99.90
14473;DHT22;7322;50.872;4.386;2024-02-15T03:26:30;18.40;99.90
14473;DHT22;7322;50.872;4.386;2024-02-15T03:28:59;18.40;99.90
14473;DHT22;7322;50.872;4.386;2024-02-15T03:31:26;18.40;99.90
14473;DHT22;7322;50.872;4.386;2024-02-15T03:33:53;18.40;99.90
14473;DHT22;7322;50.872;4.386;2024-02-15T03:36:21;18.40;99.90
14473;DHT22;7322;50.872;4.386;2024-02-15T03:38:48;18.40;99.90
14473;DHT22;7322;50.872;4.386;2024-02-15T03:41:15;18.40;99.90
14473;DHT22;7322;50.872;4.386;2024-02-15T03:43:42;18.40;99.90
14473;DHT22;7322;50.872;4.386;2024-02-15T03:46:09;18.40;99.90
14473;DHT22;7322;50.872;4.386;2024-02-15T03:48:38;18.30;99.90
14473;DHT22;7322;50.872;4.386;2024-02-15T03:51:06;18.40;99.90
14473;DHT22;7322;50.872;4.386;2024-02-15T03:53:36;18.40;99.90
14473;DHT22;7322;50.872;4.386;2024-02-15T03:56:04;18.40;99.90
14473;DHT22;7322;50.872;4.386;2024-02-15T03:58:31;18.40;99.90
14473;DHT22;7322;50.872;4.386;2024-02-15T04:00:58;18.40;99.90
14473;DHT22;7322;50.872;4.386;2024-02-15T04:03:27;18.40;99.90
14473;DHT22;7322;50.872;4.386;2024-02-15T04:05:54;18.40;99.90
14473;DHT22;7322;50.872;4.386;2024-02-15T04:08:21;18.40;99.90
14473;DHT22;7322;50.872;4.386;2024-02-15T04:10:49;18.40;99.90
14473;DHT22;7322;50.872;4.386;2024-02-15T04:13:16;18.30;99.90
14473;DHT22;7322;50.872;4.386;2024-02-15T04:15:43;18.30;99.90
14473;DHT22;7322;50.872;4.386;2024-02-15T04:18:12;18.40;99.90
14473;DHT22;7322;50.872;4.386;2024-02-15T04:20:40;18.40;99.90
14473;DHT22;7322;50.872;4.386;2024-02-15T04:23:10;18.40;99.90
14473;DHT22;7322;50.872;4.386;2024-02-15T04:25:37;18.40;99.90
14473;DHT22;7322;50.872;4.386;2024-02-15T04:28:06;18.40;99.90
14473;DHT22;7322;50.872;4.386;2024-02-15T04:30:34;18.40;99.90
14473;DHT22;7322;50.872;4.386;2024-02-15T04:33:04;18.30;99.90
14473;DHT22;7322;50.872;4.386;2024-02-15T04:35:32;18.30;99.90
14473;DHT22;7322;50.872;4.386;2024-02-15T04:38:00;18.30;99.90
14473;DHT22;7322;50.872;4.386;2024-02-15T04:40:27;18.40;99.90
14473;DHT22;7322;50.872;4.386;2024-02-15T04:42:54;18.40;99.90
14473;DHT22;7322;50.872;4.386;2024-02-15T04:45:22;18.40;99.90
14473;DHT22;7322;50.872;4.386;2024-02-15T04:47:49;18.40;99.90
14473;DHT22;7322;50.872;4.386;2024-02-15T04:50:18;18.40;99.90
14473;DHT22;7322;50.872;4.386;2024-02-15T04:52:46;18.40;99.90
14473;DHT22;7322;50.872;4.386;2024-02-15T04:55:15;18.40;99.90
14473;DHT22;7322;50.872;4.386;2024-02-15T04:57:43;18.30;99.90
14473;DHT22;7322;50.872;4.386;2024-02-15T05:00:14;18.40;99.90
14473;DHT22;7322;50.872;4.386;2024-02-15T05:02:43;18.40;99.90
14473;DHT22;7322;50.872;4.386;2024-02-15T05:05:12;18.40;99.90
14473;DHT22;7322;50.872;4.386;2024-02-15T05:07:39;18.30;99.90
14473;DHT22;7322;50.872;4.386;2024-02-15T05:10:07;18.30;99.90
14473;DHT22;7322;50.872;4.386;2024-02-15T05:12:35;18.30;99.90
14473;DHT22;7322;50.872;4.386;2024-02-15T05:15:02;18.30;99.90
14473;DHT22;7322;50.872;4.386;2024-02-15T05:17:36;18.30;99.90
14473;DHT22;7322;50.872;4.386;2024-02-15T05:20:05;18.30;99.90
14473;DHT22;7322;50.872;4.386;2024-02-15T05:22:36;18.30;99.90
14473;DHT22;7322;50.872;4.386;2024-02-15T05:25:05;18.30;99.90
14473;DHT22;7322;50.872;4.386;2024-02-15T05:27:34;18.30;99.90
14473;DHT22;7322;50.872;4.386;2024-02-15T05:30:02;18.30;99.90
14473;DHT22;7322;50.872;4.386;2024-02-15T05:32:33;18.20;99.90
14473;DHT22;7322;50.872;4.386;2024-02-15T05:35:09;18.30;99.90
14473;DHT22;7322;50.872;4.386;2024-02-15T05:37:37;18.30;99.90
14473;DHT22;7322;50.872;4.386;2024-02-15T05:40:05;18.30;99.90
14473;DHT22;7322;50.872;4.386;2024-02-15T05:42:32;18.30;99.90
14473;DHT22;7322;50.872;4.386;2024-02-15T05:45:28;18.20;99.90
14473;DHT22;7322;50.872;4.386;2024-02-15T05:47:58;18.30;99.90
14473;DHT22;7322;50.872;4.386;2024-02-15T05:50:27;18.30;99.90
14473;DHT22;7322;50.872;4.386;2024-02-15T05:52:55;18.30;99.90
14473;DHT22;7322;50.872;4.386;2024-02-15T05:55:24;18.30;99.90
14473;DHT22;7322;50.872;4.386;2024-02-15T05:57:52;18.20;99.90
14473;DHT22;7322;50.872;4.386;2024-02-15T06:00:20;18.20;99.90
14473;DHT22;7322;50.872;4.386;2024-02-15T06:02:47;18.20;99.90
14473;DHT22;7322;50.872;4.386;2024-02-15T06:05:15;18.20;99.90
14473;DHT22;7322;50.872;4.386;2024-02-15T06:07:44;18.30;99.90
14473;DHT22;7322;50.872;4.386;2024-02-15T06:10:11;18.30;99.90
14473;DHT22;7322;50.872;4.386;2024-02-15T06:12:40;18.30;99.90
14473;DHT22;7322;50.872;4.386;2024-02-15T06:15:08;18.50;99.90
14473;DHT22;7322;50.872;4.386;2024-02-15T06:17:41;18.50;99.90
14473;DHT22;7322;50.872;4.386;2024-02-15T06:20:12;18.50;99.90
14473;DHT22;7322;50.872;4.386;2024-02-15T06:22:44;18.60;99.90
14473;DHT22;7322;50.872;4.386;2024-02-15T06:25:12;18.80;99.90
14473;DHT22;7322;50.872;4.386;2024-02-15T06:27:40;18.80;99.90
14473;DHT22;7322;50.872;4.386;2024-02-15T06:30:08;19.00;99.90
14473;DHT22;7322;50.872;4.386;2024-02-15T06:32:53;19.10;99.90
14473;DHT22;7322;50.872;4.386;2024-02-15T06:35:37;19.20;99.90
14473;DHT22;7322;50.872;4.386;2024-02-15T06:38:23;19.20;99.90
14473;DHT22;7322;50.872;4.386;2024-02-15T06:41:10;19.30;99.90
14473;DHT22;7322;50.872;4.386;2024-02-15T06:43:44;19.30;99.90
14473;DHT22;7322;50.872;4.386;2024-02-15T06:46:11;19.40;99.90
14473;DHT22;7322;50.872;4.386;2024-02-15T06:48:42;19.40;99.90
14473;DHT22;7322;50.872;4.386;2024-02-15T06:51:12;19.50;99.90
14473;DHT22;7322;50.872;4.386;2024-02-15T06:53:42;19.50;99.90
14473;DHT22;7322;50.872;4.386;2024-02-15T06:56:09;19.50;99.90
14473;DHT22;7322;50.872;4.386;2024-02-15T06:58:37;19.50;99.90
14473;DHT22;7322;50.872;4.386;2024-02-15T07:01:05;19.50;99.90
14473;DHT22;7322;50.872;4.386;2024-02-15T07:03:33;19.50;99.90
14473;DHT22;7322;50.872;4.386;2024-02-15T07:06:00;19.50;99.90
14473;DHT22;7322;50.872;4.386;2024-02-15T07:08:28;19.50;99.90
14473;DHT22;7322;50.872;4.386;2024-02-15T07:10:57;19.60;99.90
14473;DHT22;7322;50.872;4.386;2024-02-15T07:13:24;19.50;99.90
14473;DHT22;7322;50.872;4.386;2024-02-15T07:15:52;19.50;99.90
14473;DHT22;7322;50.872;4.386;2024-02-15T07:18:19;19.60;99.90
14473;DHT22;7322;50.872;4.386;2024-02-15T07:20:48;19.60;99.90
14473;DHT22;7322;50.872;4.386;2024-02-15T07:23:15;19.60;99.90
14473;DHT22;7322;50.872;4.386;2024-02-15T07:25:43;19.50;99.90
14473;DHT22;7322;50.872;4.386;2024-02-15T07:28:16;19.50;99.90
14473;DHT22;7322;50.872;4.386;2024-02-15T07:30:52;19.50;99.90
14473;DHT22;7322;50.872;4.386;2024-02-15T07:33:36;19.50;99.90
14473;DHT22;7322;50.872;4.386;2024-02-15T07:36:06;19.50;99.90
14473;DHT22;7322;50.872;4.386;2024-02-15T07:38:33;19.40;99.90
14473;DHT22;7322;50.872;4.386;2024-02-15T07:41:05;19.40;99.90
14473;DHT22;7322;50.872;4.386;2024-02-15T07:43:53;19.40;99.90
14473;DHT22;7322;50.872;4.386;2024-02-15T07:46:26;19.30;99.90
14473;DHT22;7322;50.872;4.386;2024-02-15T07:48:54;19.30;99.90
14473;DHT22;7322;50.872;4.386;2024-02-15T07:51:27;19.30;99.90
14473;DHT22;7322;50.872;4.386;2024-02-15T07:53:54;19.30;99.90
14473;DHT22;7322;50.872;4.386;2024-02-15T07:56:23;19.30;99.90
14473;DHT22;7322;50.872;4.386;2024-02-15T07:59:02;19.30;99.90
14473;DHT22;7322;50.872;4.386;2024-02-15T08:01:29;19.20;99.90
14473;DHT22;7322;50.872;4.386;2024-02-15T08:03:58;19.30;99.90
14473;DHT22;7322;50.872;4.386;2024-02-15T08:06:26;19.30;99.90
14473;DHT22;7322;50.872;4.386;2024-02-15T08:08:56;19.20;99.90
14473;DHT22;7322;50.872;4.386;2024-02-15T08:11:25;19.20;99.90
14473;DHT22;7322;50.872;4.386;2024-02-15T08:13:53;19.20;99.90
14473;DHT22;7322;50.872;4.386;2024-02-15T08:16:29;19.20;99.90
14473;DHT22;7322;50.872;4.386;2024-02-15T08:18:56;19.20;99.90
14473;DHT22;7322;50.872;4.386;2024-02-15T08:21:27;19.20;99.90
14473;DHT22;7322;50.872;4.386;2024-02-15T08:23:56;19.20;99.90
14473;DHT22;7322;50.872;4.386;2024-02-15T08:26:24;19.20;99.90
14473;DHT22;7322;50.872;4.386;2024-02-15T08:28:52;19.20;99.90
14473;DHT22;7322;50.872;4.386;2024-02-15T08:31:29;19.20;99.90
14473;DHT22;7322;50.872;4.386;2024-02-15T08:33:57;19.20;99.90
14473;DHT22;7322;50.872;4.386;2024-02-15T08:36:25;19.20;99.90
14473;DHT22;7322;50.872;4.386;2024-02-15T08:38:53;19.20;99.90
14473;DHT22;7322;50.872;4.386;2024-02-15T08:41:22;19.20;99.90
14473;DHT22;7322;50.872;4.386;2024-02-15T08:44:05;19.20;99.90
14473;DHT22;7322;50.872;4.386;2024-02-15T08:46:41;19.20;99.90
14473;DHT22;7322;50.872;4.386;2024-02-15T08:49:10;19.20;99.90
14473;DHT22;7322;50.872;4.386;2024-02-15T08:51:46;19.10;99.90
14473;DHT22;7322;50.872;4.386;2024-02-15T08:54:16;19.20;99.90
14473;DHT22;7322;50.872;4.386;2024-02-15T08:56:45;19.10;99.90
14473;DHT22;7322;50.872;4.386;2024-02-15T08:59:13;19.10;99.90
14473;DHT22;7322;50.872;4.386;2024-02-15T09:01:44;19.10;99.90
14473;DHT22;7322;50.872;4.386;2024-02-15T09:04:14;19.10;99.90
14473;DHT22;7322;50.872;4.386;2024-02-15T09:07:04;19.10;99.90
14473;DHT22;7322;50.872;4.386;2024-02-15T09:09:33;19.10;99.90
14473;DHT22;7322;50.872;4.386;2024-02-15T09:12:08;19.10;99.90
14473;DHT22;7322;50.872;4.386;2024-02-15T09:14:44;19.10;99.90
14473;DHT22;7322;50.872;4.386;2024-02-15T09:17:19;19.10;99.90
14473;DHT22;7322;50.872;4.386;2024-02-15T09:19:48;19.10;99.90
14473;DHT22;7322;50.872;4.386;2024-02-15T09:22:32;19.10;99.90
14473;DHT22;7322;50.872;4.386;2024-02-15T09:25:08;19.10;99.90
14473;DHT22;7322;50.872;4.386;2024-02-15T09:27:43;19.00;99.90
14473;DHT22;7322;50.872;4.386;2024-02-15T09:30:17;19.00;99.90
14473;DHT22;7322;50.872;4.386;2024-02-15T09:32:46;19.00;99.90
14473;DHT22;7322;50.872;4.386;2024-02-15T09:35:22;19.00;99.90
14473;DHT22;7322;50.872;4.386;2024-02-15T09:37:49;19.00;99.90
14473;DHT22;7322;50.872;4.386;2024-02-15T09:40:28;19.00;99.90
14473;DHT22;7322;50.872;4.386;2024-02-15T09:43:00;19.00;99.90
14473;DHT22;7322;50.872;4.386;2024-02-15T09:45:43;19.00;99.90
14473;DHT22;7322;50.872;4.386;2024-02-15T09:48:31;19.00;99.90
14473;DHT22;7322;50.872;4.386;2024-02-15T09:51:05;19.00;99.90
14473;DHT22;7322;50.872;4.386;2024-02-15T09:53:47;18.90;99.90
14473;DHT22;7322;50.872;4.386;2024-02-15T09:56:38;18.90;99.90
14473;DHT22;7322;50.872;4.386;2024-02-15T10:08:54;18.90;99.90
14473;DHT22;7322;50.872;4.386;2024-02-15T10:11:54;18.90;99.90
14473;DHT22;7322;50.872;4.386;2024-02-15T10:14:28;18.90;99.90
14473;DHT22;7322;50.872;4.386;2024-02-15T10:16:56;18.90;99.90
14473;DHT22;7322;50.872;4.386;2024-02-15T10:19:27;18.90;99.90
14473;DHT22;7322;50.872;4.386;2024-02-15T10:22:07;18.90;99.90
14473;DHT22;7322;50.872;4.386;2024-02-15T10:24:36;18.90;99.90
14473;DHT22;7322;50.872;4.386;2024-02-15T10:27:09;18.90;99.90
14473;DHT22;7322;50.872;4.386;2024-02-15T10:29:40;18.90;99.90
14473;DHT22;7322;50.872;4.386;2024-02-15T10:32:13;18.90;99.90
14473;DHT22;7322;50.872;4.386;2024-02-15T10:34:44;18.90;99.90
14473;DHT22;7322;50.872;4.386;2024-02-15T10:37:12;18.90;99.90
14473;DHT22;7322;50.872;4.386;2024-02-15T10:39:41;18.90;99.90
14473;DHT22;7322;50.872;4.386;2024-02-15T10:42:14;18.90;99.90
14473;DHT22;7322;50.872;4.386;2024-02-15T10:44:44;18.90;99.90
14473;DHT22;7322;50.872;4.386;2024-02-15T10:47:13;18.90;99.90
14473;DHT22;7322;50.872;4.386;2024-02-15T10:49:42;18.90;99.90
14473;DHT22;7322;50.872;4.386;2024-02-15T10:52:10;18.90;99.90
14473;DHT22;7322;50.872;4.386;2024-02-15T10:54:47;19.00;99.90
14473;DHT22;7322;50.872;4.386;2024-02-15T10:57:21;18.90;99.90
14473;DHT22;7322;50.872;4.386;2024-02-15T10:59:56;18.90;99.90
14473;DHT22;7322;50.872;4.386;2024-02-15T11:02:27;18.90;99.90
14473;DHT22;7322;50.872;4.386;2024-02-15T11:05:02;19.00;99.90
14473;DHT22;7322;50.872;4.386;2024-02-15T11:07:32;18.90;99.90
14473;DHT22;7322;50.872;4.386;2024-02-15T11:10:01;19.00;99.90
14473;DHT22;7322;50.872;4.386;2024-02-15T11:12:31;19.00;99.90
14473;DHT22;7322;50.872;4.386;2024-02-15T11:14:58;19.00;99.90
14473;DHT22;7322;50.872;4.386;2024-02-15T11:17:45;18.90;99.90
14473;DHT22;7322;50.872;4.386;2024-02-15T11:20:48;18.90;99.90
14473;DHT22;7322;50.872;4.386;2024-02-15T11:23:25;18.90;99.90
14473;DHT22;7322;50.872;4.386;2024-02-15T11:25:56;18.90;99.90
14473;DHT22;7322;50.872;4.386;2024-02-15T11:28:44;18.90;99.90
14473;DHT22;7322;50.872;4.386;2024-02-15T11:34:42;18.90;99.90
14473;DHT22;7322;50.872;4.386;2024-02-15T11:41:04;18.90;99.90
14473;DHT22;7322;50.872;4.386;2024-02-15T11:43:56;18.90;99.90
14473;DHT22;7322;50.872;4.386;2024-02-15T11:46:26;18.90;99.90
14473;DHT22;7322;50.872;4.386;2024-02-15T11:48:57;18.90;99.90
14473;DHT22;7322;50.872;4.386;2024-02-15T11:51:31;18.90;99.90
14473;DHT22;7322;50.872;4.386;2024-02-15T11:54:10;18.90;99.90
14473;DHT22;7322;50.872;4.386;2024-02-15T11:56:56;18.90;99.90
14473;DHT22;7322;50.872;4.386;2024-02-15T11:59:39;18.90;99.90
14473;DHT22;7322;50.872;4.386;2024-02-15T12:02:19;18.90;99.90
14473;DHT22;7322;50.872;4.386;2024-02-15T12:05:06;18.90;99.90
14473;DHT22;7322;50.872;4.386;2024-02-15T12:07:54;18.90;99.90
14473;DHT22;7322;50.872;4.386;2024-02-15T12:10:56;18.90;99.90
14473;DHT22;7322;50.872;4.386;2024-02-15T12:13:51;18.90;99.90
14473;DHT22;7322;50.872;4.386;2024-02-15T12:16:38;18.90;99.90
14473;DHT22;7322;50.872;4.386;2024-02-15T12:19:30;18.90;99.90
14473;DHT22;7322;50.872;4.386;2024-02-15T12:21:58;18.80;99.90
14473;DHT22;7322;50.872;4.386;2024-02-15T12:24:27;18.90;99.90
14473;DHT22;7322;50.872;4.386;2024-02-15T12:27:00;18.90;99.90
14473;DHT22;7322;50.872;4.386;2024-02-15T12:29:31;18.80;99.90
14473;DHT22;7322;50.872;4.386;2024-02-15T12:32:03;18.90;99.90
14473;DHT22;7322;50.872;4.386;2024-02-15T12:34:31;18.90;99.90
14473;DHT22;7322;50.872;4.386;2024-02-15T12:37:10;18.90;99.90
14473;DHT22;7322;50.872;4.386;2024-02-15T12:39:37;18.90;99.90
14473;DHT22;7322;50.872;4.386;2024-02-15T12:42:06;18.90;99.90
14473;DHT22;7322;50.872;4.386;2024-02-15T12:44:36;18.90;99.90
14473;DHT22;7322;50.872;4.386;2024-02-15T12:47:03;18.90;99.90
14473;DHT22;7322;50.872;4.386;2024-02-15T12:49:32;18.90;99.90
14473;DHT22;7322;50.872;4.386;2024-02-15T12:52:37;18.90;99.90
14473;DHT22;7322;50.872;4.386;2024-02-15T12:55:12;18.90;99.90
14473;DHT22;7322;50.872;4.386;2024-02-15T12:57:42;18.90;99.90
14473;DHT22;7322;50.872;4.386;2024-02-15T13:00:12;18.90;99.90
14473;DHT22;7322;50.872;4.386;2024-02-15T13:02:45;18.90;99.90
14473;DHT22;7322;50.872;4.386;2024-02-15T13:05:14;18.80;99.90
14473;DHT22;7322;50.872;4.386;2024-02-15T13:07:44;18.90;99.90
14473;DHT22;7322;50.872;4.386;2024-02-15T13:10:11;18.90;99.90
14473;DHT22;7322;50.872;4.386;2024-02-15T13:12:41;18.90;99.90
14473;DHT22;7322;50.872;4.386;2024-02-15T13:15:10;18.90;99.90
14473;DHT22;7322;50.872;4.386;2024-02-15T13:17:44;18.90;99.90
14473;DHT22;7322;50.872;4.386;2024-02-15T13:20:12;18.90;99.90
14473;DHT22;7322;50.872;4.386;2024-02-15T13:22:40;18.90;99.90
14473;DHT22;7322;50.872;4.386;2024-02-15T13:25:09;18.90;99.90
14473;DHT22;7322;50.872;4.386;2024-02-15T13:27:36;18.90;99.90
14473;DHT22;7322;50.872;4.386;2024-02-15T13:30:05;18.90;99.90
14473;DHT22;7322;50.872;4.386;2024-02-15T13:32:35;18.90;99.90
14473;DHT22;7322;50.872;4.386;2024-02-15T13:35:06;18.90;99.90
14473;DHT22;7322;50.872;4.386;2024-02-15T13:37:40;18.90;99.90
14473;DHT22;7322;50.872;4.386;2024-02-15T13:40:09;18.90;99.90
14473;DHT22;7322;50.872;4.386;2024-02-15T13:42:41;18.80;99.90
14473;DHT22;7322;50.872;4.386;2024-02-15T13:45:12;18.90;99.90
14473;DHT22;7322;50.872;4.386;2024-02-15T13:47:41;18.90;99.90
14473;DHT22;7322;50.872;4.386;2024-02-15T13:50:13;18.90;99.90
14473;DHT22;7322;50.872;4.386;2024-02-15T13:52:41;18.90;99.90
14473;DHT22;7322;50.872;4.386;2024-02-15T13:55:10;18.90;99.90
14473;DHT22;7322;50.872;4.386;2024-02-15T13:57:39;18.90;99.90
14473;DHT22;7322;50.872;4.386;2024-02-15T14:00:08;18.90;99.90
14473;DHT22;7322;50.872;4.386;2024-02-15T14:02:39;18.90;99.90
14473;DHT22;7322;50.872;4.386;2024-02-15T14:05:06;18.90;99.90
14473;DHT22;7322;50.872;4.386;2024-02-15T14:07:35;18.90;99.90
14473;DHT22;7322;50.872;4.386;2024-02-15T14:10:03;18.80;99.90
14473;DHT22;7322;50.872;4.386;2024-02-15T14:12:30;18.90;99.90
14473;DHT22;7322;50.872;4.386;2024-02-15T14:14:58;18.80;99.90
14473;DHT22;7322;50.872;4.386;2024-02-15T14:17:25;18.80;99.90
14473;DHT22;7322;50.872;4.386;2024-02-15T14:19:53;18.80;99.90
14473;DHT22;7322;50.872;4.386;2024-02-15T14:22:22;18.80;99.90
14473;DHT22;7322;50.872;4.386;2024-02-15T14:24:50;18.80;99.90
14473;DHT22;7322;50.872;4.386;2024-02-15T14:27:17;18.90;99.90
14473;DHT22;7322;50.872;4.386;2024-02-15T14:29:44;18.80;99.90
14473;DHT22;7322;50.872;4.386;2024-02-15T14:32:32;18.80;99.90
14473;DHT22;7322;50.872;4.386;2024-02-15T14:35:16;18.80;99.90
14473;DHT22;7322;50.872;4.386;2024-02-15T14:37:43;18.80;99.90
14473;DHT22;7322;50.872;4.386;2024-02-15T14:40:12;18.80;99.90
14473;DHT22;7322;50.872;4.386;2024-02-15T14:42:41;18.80;99.90
14473;DHT22;7322;50.872;4.386;2024-02-15T14:45:09;18.80;99.90
14473;DHT22;7322;50.872;4.386;2024-02-15T14:47:36;18.80;99.90
14473;DHT22;7322;50.872;4.386;2024-02-15T14:50:04;18.80;99.90
14473;DHT22;7322;50.872;4.386;2024-02-15T14:52:34;18.90;99.90
14473;DHT22;7322;50.872;4.386;2024-02-15T14:55:02;18.90;99.90
14473;DHT22;7322;50.872;4.386;2024-02-15T14:57:32;18.90;99.90
14473;DHT22;7322;50.872;4.386;2024-02-15T14:59:59;19.00;99.90
14473;DHT22;7322;50.872;4.386;2024-02-15T15:02:26;19.00;99.90
14473;DHT22;7322;50.872;4.386;2024-02-15T15:04:53;19.10;99.90
14473;DHT22;7322;50.872;4.386;2024-02-15T15:07:40;19.20;99.90
14473;DHT22;7322;50.872;4.386;2024-02-15T15:10:24;19.30;99.90
14473;DHT22;7322;50.872;4.386;2024-02-15T15:13:10;19.40;99.90
14473;DHT22;7322;50.872;4.386;2024-02-15T15:15:37;19.40;99.90
14473;DHT22;7322;50.872;4.386;2024-02-15T15:18:05;19.40;99.90
14473;DHT22;7322;50.872;4.386;2024-02-15T15:20:33;19.50;99.90
14473;DHT22;7322;50.872;4.386;2024-02-15T15:23:02;19.50;99.90
14473;DHT22;7322;50.872;4.386;2024-02-15T15:25:30;19.60;99.90
14473;DHT22;7322;50.872;4.386;2024-02-15T15:27:57;19.60;99.90
14473;DHT22;7322;50.872;4.386;2024-02-15T15:30:26;19.60;99.90
14473;DHT22;7322;50.872;4.386;2024-02-15T15:32:53;19.60;99.90
14473;DHT22;7322;50.872;4.386;2024-02-15T15:35:20;19.60;99.90
14473;DHT22;7322;50.872;4.386;2024-02-15T15:37:49;19.60;99.90
14473;DHT22;7322;50.872;4.386;2024-02-15T15:40:16;19.60;99.90
14473;DHT22;7322;50.872;4.386;2024-02-15T15:42:43;19.70;99.90
14473;DHT22;7322;50.872;4.386;2024-02-15T15:45:10;19.70;99.90
14473;DHT22;7322;50.872;4.386;2024-02-15T15:47:40;19.70;99.90
14473;DHT22;7322;50.872;4.386;2024-02-15T15:50:08;19.80;99.90
14473;DHT22;7322;50.872;4.386;2024-02-15T15:52:37;19.80;99.90
14473;DHT22;7322;50.872;4.386;2024-02-15T15:55:07;19.80;99.90
14473;DHT22;7322;50.872;4.386;2024-02-15T15:57:37;19.80;99.90
14473;DHT22;7322;50.872;4.386;2024-02-15T16:00:06;19.80;99.90
14473;DHT22;7322;50.872;4.386;2024-02-15T16:02:40;19.80;99.90
14473;DHT22;7322;50.872;4.386;2024-02-15T16:05:09;19.90;99.90
14473;DHT22;7322;50.872;4.386;2024-02-15T16:07:37;19.90;99.90
14473;DHT22;7322;50.872;4.386;2024-02-15T16:10:07;19.90;99.90
14473;DHT22;7322;50.872;4.386;2024-02-15T16:12:37;19.90;99.90
14473;DHT22;7322;50.872;4.386;2024-02-15T16:15:05;20.00;99.90
14473;DHT22;7322;50.872;4.386;2024-02-15T16:17:33;20.00;99.90
14473;DHT22;7322;50.872;4.386;2024-02-15T16:20:03;20.00;99.90
14473;DHT22;7322;50.872;4.386;2024-02-15T16:22:31;20.00;99.90
14473;DHT22;7322;50.872;4.386;2024-02-15T16:25:00;19.90;99.90
14473;DHT22;7322;50.872;4.386;2024-02-15T16:27:31;19.90;99.90